Time;durP1;ratioP1;P1;durP2;ratioP2;P2;SDS_P1;SDS_P2;PMS_P1;PMS_P2;Temp;Humidity;BMP_temperature;BMP_pressure;BME280_temperature;BME280_humidity;BME280_pressure;Samples;Min_cycle;Max_cycle;Signal;HPM_P1;HPM_P2
2022/09/22 00:00:02;;;;;;;;;;;;;;;;;;350109;28;936;-64
2022/09/22 00:00:12;;;;;;;;;;;;;;;;;;350126;28;778;-63
2022/09/22 00:00:24;;;;;;;;;;;;;;;;;;349965;28;821;-63
2022/09/22 00:00:34;;;;;;;;;;;;;;;;;;350105;28;992;-63
2022/09/22 00:00:58;;;;;;;;;;;;;;;;;;350121;28;886;-63
2022/09/22 00:01:10;;;;;;;;;;;;;;;;;;350117;28;940;-63
2022/09/22 00:01:21;;;;;;;;;;;;;;;;;;350019;28;991;-63
2022/09/22 00:01:33;;;;;;;;;;;;;;;;;;350135;28;1035;-63
2022/09/22 00:01:43;;;;;;;;;;;;;;;;;;350073;28;937;-64
2022/09/22 00:01:53;;;;;;;;;;;;;;;;;;350055;28;840;-63
2022/09/22 00:02:04;;;;;;;;;;;;;;;;;;350083;28;984;-63
2022/09/22 00:02:14;;;;;;;;;;;;;;;;;;350082;28;817;-63
2022/09/22 00:02:24;;;;;;;;;;;;;;;;;;350042;28;991;-63
2022/09/22 00:02:34;;;;;;;;;;;;;;;;;;350026;28;933;-64
2022/09/22 00:02:44;;;;;;;;;;;;;;;;;;350095;28;968;-63
2022/09/22 00:02:56;;;;;;;;;;;;;;;;;;350131;28;1052;-63
2022/09/22 00:03:07;;;;;;;;;;;;;;;;;;350067;28;932;-63
2022/09/22 00:03:17;;;;;;;;;;;;;;;;;;350103;28;928;-63
2022/09/22 00:03:37;;;;;;;;;;;;;;;;;;350112;28;870;-64
2022/09/22 00:03:51;;;;;;;;;;;;;;;;;;350047;28;1020;-63
2022/09/22 00:04:03;;;;;;;;;;;;;;;;;;350080;28;992;-63
2022/09/22 00:04:13;;;;;;;;;;;;;;;;;;350059;28;960;-63
2022/09/22 00:04:23;;;;;;;;;;;;;;;;;;350073;28;916;-63
2022/09/22 00:04:33;;;;;;;;;;;;;;;;;;350014;28;889;-63
2022/09/22 00:04:44;;;;;;;;;;;;;;;;;;350041;28;928;-63
2022/09/22 00:04:54;;;;;;;;;;;;;;;;;;350062;28;933;-63
2022/09/22 00:05:04;;;;;;;;;;;;;;;;;;349354;28;1884;-63
2022/09/22 00:05:14;;;;;;;;;;;;;;;;;;348724;28;803;-63
2022/09/22 00:05:25;;;;;;;;;;;;;;;;;;348611;28;1195;-63
2022/09/22 00:05:35;;;;;;;;;;;;;;;;;;348715;28;905;-63
2022/09/22 00:05:45;;;;;;;;;;;;;;;;;;348707;28;1040;-63
2022/09/22 00:06:03;;;;;;;;;;;;;;;;;;348714;28;834;-63
2022/09/22 00:06:15;;;;;;;;;;;;;;;;;;348693;28;1170;-63
2022/09/22 00:06:29;;;;;;;;;;;;;;;;;;348679;28;863;-63
2022/09/22 00:06:42;;;;;;;;;;;;;;;;;;348379;28;1374;-64
2022/09/22 00:06:52;;;;;;;;;;;;;;;;;;349850;28;1040;-63
2022/09/22 00:07:02;;;;;;;;;;;;;;;;;;350051;28;941;-63
2022/09/22 00:07:13;;;;;;;;;;;;;;;;;;350076;28;991;-64
2022/09/22 00:07:24;;;;;;;;;;;;;;;;;;350071;28;992;-63
2022/09/22 00:07:34;;;;;;;;;;;;;;;;;;350070;28;987;-63
2022/09/22 00:07:44;;;;;;;;;;;;;;;;;;350099;28;953;-63
2022/09/22 00:07:54;;;;;;;;;;;;;;;;;;350059;28;936;-64
2022/09/22 00:08:05;;;;;;;;;;;;;;;;;;349937;28;1931;-63
2022/09/22 00:08:15;;;;;;;;;;;;;;;;;;350414;28;1540;-63
2022/09/22 00:08:26;;;;;;;;;;;;;;;;;;351490;28;892;-63
2022/09/22 00:08:37;;;;;;;;;;;;;;;;;;351475;28;972;-63
2022/09/22 00:08:50;;;;;;;;;;;;;;;;;;351357;28;1124;-63
2022/09/22 00:09:01;;;;;;;;;;;;;;;;;;351491;28;979;-63
2022/09/22 00:09:12;;;;;;;;;;;;;;;;;;351474;28;995;-63
2022/09/22 00:09:22;;;;;;;;;;;;;;;;;;351529;28;928;-63
2022/09/22 00:09:32;;;;;;;;;;;;;;;;;;351493;28;852;-63
2022/09/22 00:09:42;;;;;;;;;;;;;;;;;;351440;28;1003;-63
2022/09/22 00:09:53;;;;;;;;;;;;;;;;;;351478;28;967;-63
2022/09/22 00:10:03;;;;;;;;;;;;;;;;;;351445;28;804;-63
2022/09/22 00:10:14;;;;;;;;;;;;;;;;;;351528;28;816;-63
2022/09/22 00:10:24;;;;;;;;;;;;;;;;;;351499;28;995;-63
2022/09/22 00:10:34;;;;;;;;;;;;;;;;;;351387;28;936;-64
2022/09/22 00:10:44;;;;;;;;;;;;;;;;;;351464;28;952;-63
2022/09/22 00:11:21;;;;;;;;;;;;;;;;;;351440;28;892;-64
2022/09/22 00:11:34;;;;;;;;;;;;;;;;;;350069;28;1266;-64
2022/09/22 00:11:46;;;;;;;;;;;;;;;;;;351513;28;789;-63
2022/09/22 00:11:56;;;;;;;;;;;;;;;;;;351510;28;925;-63
2022/09/22 00:12:06;;;;;;;;;;;;;;;;;;351548;28;936;-63
2022/09/22 00:12:17;;;;;;;;;;;;;;;;;;351514;28;790;-64
2022/09/22 00:12:27;;;;;;;;;;;;;;;;;;351440;28;963;-63
2022/09/22 00:12:37;;;;;;;;;;;;;;;;;;351471;28;1007;-63
2022/09/22 00:12:48;;;;;;;;;;;;;;;;;;351461;28;979;-64
2022/09/22 00:12:58;;;;;;;;;;;;;;;;;;351403;28;1003;-63
2022/09/22 00:13:08;;;;;;;;;;;;;;;;;;351445;28;968;-63
2022/09/22 00:13:18;;;;;;;;;;;;;;;;;;351438;28;880;-63
2022/09/22 00:13:30;;;;;;;;;;;;;;;;;;351500;28;885;-63
2022/09/22 00:13:40;;;;;;;;;;;;;;;;;;351463;28;951;-63
2022/09/22 00:13:52;;;;;;;;;;;;;;;;;;351455;28;875;-63
2022/09/22 00:14:04;;;;;;;;;;;;;;;;;;351429;28;912;-63
2022/09/22 00:14:19;;;;;;;;;;;;;;;;;;351453;28;937;-63
2022/09/22 00:14:29;;;;;;;;;;;;;;;;;;351354;28;1969;-64
2022/09/22 00:14:39;;;;;;;;;;;;;;;;;;351433;28;987;-63
2022/09/22 00:14:50;;;;;;;;;;;;;;;;;;351480;28;888;-63
2022/09/22 00:15:01;;;;;;;;;;;;;;;;;;351417;28;996;-63
2022/09/22 00:15:11;;;;;;;;;;;;;;;;;;348981;28;1457;-63
2022/09/22 00:15:22;;;;;;;;;;;;;;;;;;350057;28;1004;-63
2022/09/22 00:15:33;;;;;;;;;;;;;;;;;;350065;28;932;-63
2022/09/22 00:15:44;;;;;;;;;;;;;;;;;;349838;28;932;-63
2022/09/22 00:15:54;;;;;;;;;;;;;;;;;;349855;28;945;-64
2022/09/22 00:16:07;;;;;;;;;;;;;;;;;;349887;28;995;-63
2022/09/22 00:16:19;;;;;;;;;;;;;;;;;;350020;28;817;-63
2022/09/22 00:16:36;;;;;;;;;;;;;;;;;;349037;28;1503;-63
2022/09/22 00:16:47;;;;;;;;;;;;;;;;;;349946;28;1662;-63
2022/09/22 00:17:00;;;;;;;;;;;;;;;;;;350037;28;1023;-63
2022/09/22 00:17:11;;;;;;;;;;;;;;;;;;349998;28;936;-63
2022/09/22 00:17:22;;;;;;;;;;;;;;;;;;350036;28;887;-63
2022/09/22 00:17:32;;;;;;;;;;;;;;;;;;350080;28;893;-63
2022/09/22 00:17:42;;;;;;;;;;;;;;;;;;350040;28;964;-63
2022/09/22 00:17:52;;;;;;;;;;;;;;;;;;350082;28;868;-63
2022/09/22 00:18:03;;;;;;;;;;;;;;;;;;349970;28;952;-63
2022/09/22 00:18:13;;;;;;;;;;;;;;;;;;350087;28;794;-63
2022/09/22 00:18:23;;;;;;;;;;;;;;;;;;350038;28;860;-64
2022/09/22 00:18:34;;;;;;;;;;;;;;;;;;350066;28;984;-63
2022/09/22 00:18:45;;;;;;;;;;;;;;;;;;349974;27;1668;-63
2022/09/22 00:18:55;;;;;;;;;;;;;;;;;;350034;28;1306;-63
2022/09/22 00:19:06;;;;;;;;;;;;;;;;;;350073;28;984;-63
2022/09/22 00:19:16;;;;;;;;;;;;;;;;;;350026;28;1039;-64
2022/09/22 00:19:28;;;;;;;;;;;;;;;;;;349995;28;953;-64
2022/09/22 00:19:38;;;;;;;;;;;;;;;;;;350012;28;785;-63
2022/09/22 00:19:48;;;;;;;;;;;;;;;;;;350035;28;1102;-63
2022/09/22 00:19:58;;;;;;;;;;;;;;;;;;350026;28;1027;-63
2022/09/22 00:20:10;;;;;;;;;;;;;;;;;;350003;28;964;-64
2022/09/22 00:20:20;;;;;;;;;;;;;;;;;;350061;28;994;-63
2022/09/22 00:20:30;;;;;;;;;;;;;;;;;;350015;28;1223;-63
2022/09/22 00:20:40;;;;;;;;;;;;;;;;;;350088;28;900;-63
2022/09/22 00:20:50;;;;;;;;;;;;;;;;;;349998;28;919;-63
2022/09/22 00:21:06;;;;;;;;;;;;;;;;;;350396;28;1256;-63
2022/09/22 00:21:18;;;;;;;;;;;;;;;;;;350985;28;1225;-63
2022/09/22 00:21:29;;;;;;;;;;;;;;;;;;350067;28;877;-63
2022/09/22 00:21:40;;;;;;;;;;;;;;;;;;350038;28;874;-64
2022/09/22 00:21:50;;;;;;;;;;;;;;;;;;350017;28;980;-63
2022/09/22 00:22:00;;;;;;;;;;;;;;;;;;350048;28;931;-63
2022/09/22 00:22:11;;;;;;;;;;;;;;;;;;350096;28;777;-63
2022/09/22 00:22:21;;;;;;;;;;;;;;;;;;349990;28;915;-63
2022/09/22 00:22:32;;;;;;;;;;;;;;;;;;350045;28;1084;-63
2022/09/22 00:22:42;;;;;;;;;;;;;;;;;;350017;28;963;-63
2022/09/22 00:22:52;;;;;;;;;;;;;;;;;;350015;28;959;-63
2022/09/22 00:23:02;;;;;;;;;;;;;;;;;;350061;28;936;-63
2022/09/22 00:23:12;;;;;;;;;;;;;;;;;;350038;28;769;-64
2022/09/22 00:23:23;;;;;;;;;;;;;;;;;;349981;28;912;-64
2022/09/22 00:23:34;;;;;;;;;;;;;;;;;;350056;28;880;-63
2022/09/22 00:23:46;;;;;;;;;;;;;;;;;;350058;28;932;-63
2022/09/22 00:23:56;;;;;;;;;;;;;;;;;;350028;28;999;-64
2022/09/22 00:24:06;;;;;;;;;;;;;;;;;;350067;28;920;-63
2022/09/22 00:24:17;;;;;;;;;;;;;;;;;;350113;28;974;-63
2022/09/22 00:24:28;;;;;;;;;;;;;;;;;;350002;28;1006;-64
2022/09/22 00:24:38;;;;;;;;;;;;;;;;;;350087;28;798;-63
2022/09/22 00:24:48;;;;;;;;;;;;;;;;;;350042;28;943;-63
2022/09/22 00:24:59;;;;;;;;;;;;;;;;;;350020;28;936;-64
2022/09/22 00:25:09;;;;;;;;;;;;;;;;;;349232;28;1906;-63
2022/09/22 00:25:19;;;;;;;;;;;;;;;;;;350095;28;948;-64
2022/09/22 00:25:29;;;;;;;;;;;;;;;;;;349977;28;932;-63
2022/09/22 00:25:39;;;;;;;;;;;;;;;;;;350067;28;933;-64
2022/09/22 00:25:50;;;;;;;;;;;;;;;;;;350069;28;860;-63
2022/09/22 00:26:04;;;;;;;;;;;;;;;;;;350004;28;928;-63
2022/09/22 00:26:16;;;;;;;;;;;;;;;;;;350076;28;936;-63
2022/09/22 00:26:26;;;;;;;;;;;;;;;;;;350011;28;1011;-63
2022/09/22 00:26:37;;;;;;;;;;;;;;;;;;350082;28;949;-63
2022/09/22 00:26:48;;;;;;;;;;;;;;;;;;350061;28;952;-63
2022/09/22 00:26:58;;;;;;;;;;;;;;;;;;350032;27;995;-64
2022/09/22 00:27:08;;;;;;;;;;;;;;;;;;349325;28;1848;-64
2022/09/22 00:27:19;;;;;;;;;;;;;;;;;;351430;28;983;-63
2022/09/22 00:27:29;;;;;;;;;;;;;;;;;;351396;28;904;-63
2022/09/22 00:27:39;;;;;;;;;;;;;;;;;;351370;28;876;-63
2022/09/22 00:27:53;;;;;;;;;;;;;;;;;;351470;28;983;-63
2022/09/22 00:28:03;;;;;;;;;;;;;;;;;;351516;28;848;-63
2022/09/22 00:28:13;;;;;;;;;;;;;;;;;;351481;28;868;-63
2022/09/22 00:28:24;;;;;;;;;;;;;;;;;;351365;28;1035;-63
2022/09/22 00:28:35;;;;;;;;;;;;;;;;;;351483;28;863;-63
2022/09/22 00:28:46;;;;;;;;;;;;;;;;;;351443;28;845;-63
2022/09/22 00:28:56;;;;;;;;;;;;;;;;;;351422;28;982;-63
2022/09/22 00:29:08;;;;;;;;;;;;;;;;;;351404;28;936;-63
2022/09/22 00:29:18;;;;;;;;;;;;;;;;;;351408;28;967;-63
2022/09/22 00:29:29;;;;;;;;;;;;;;;;;;351501;28;975;-63
2022/09/22 00:29:39;;;;;;;;;;;;;;;;;;351405;28;790;-63
2022/09/22 00:29:50;;;;;;;;;;;;;;;;;;351375;28;757;-63
2022/09/22 00:30:00;;;;;;;;;;;;;;;;;;351416;28;943;-63
2022/09/22 00:30:11;;;;;;;;;;;;;;;;;;351442;28;944;-63
2022/09/22 00:30:21;;;;;;;;;;;;;;;;;;351438;28;778;-63
2022/09/22 00:30:31;;;;;;;;;;;;;;;;;;351470;28;888;-64
2022/09/22 00:30:41;;;;;;;;;;;;;;;;;;351409;28;1132;-64
2022/09/22 00:30:52;;;;;;;;;;;;;;;;;;351438;28;924;-63
2022/09/22 00:31:03;;;;;;;;;;;;;;;;;;351439;28;932;-63
2022/09/22 00:31:15;;;;;;;;;;;;;;;;;;348843;28;1378;-63
2022/09/22 00:31:26;;;;;;;;;;;;;;;;;;348633;28;948;-63
2022/09/22 00:31:37;;;;;;;;;;;;;;;;;;348678;28;865;-63
2022/09/22 00:31:48;;;;;;;;;;;;;;;;;;348623;28;980;-64
2022/09/22 00:31:59;;;;;;;;;;;;;;;;;;348622;28;890;-63
2022/09/22 00:32:10;;;;;;;;;;;;;;;;;;348670;28;786;-63
2022/09/22 00:32:20;;;;;;;;;;;;;;;;;;348685;28;841;-63
2022/09/22 00:32:30;;;;;;;;;;;;;;;;;;348672;28;987;-63
2022/09/22 00:32:40;;;;;;;;;;;;;;;;;;348624;28;924;-63
2022/09/22 00:32:50;;;;;;;;;;;;;;;;;;348707;28;782;-63
2022/09/22 00:33:01;;;;;;;;;;;;;;;;;;348659;28;979;-63
2022/09/22 00:33:11;;;;;;;;;;;;;;;;;;348619;28;1007;-63
2022/09/22 00:33:21;;;;;;;;;;;;;;;;;;348673;28;944;-63
2022/09/22 00:33:32;;;;;;;;;;;;;;;;;;348658;28;920;-63
2022/09/22 00:33:42;;;;;;;;;;;;;;;;;;348612;28;984;-64
2022/09/22 00:33:53;;;;;;;;;;;;;;;;;;348720;28;774;-63
2022/09/22 00:34:03;;;;;;;;;;;;;;;;;;348606;28;983;-63
2022/09/22 00:34:15;;;;;;;;;;;;;;;;;;348700;28;786;-63
2022/09/22 00:34:26;;;;;;;;;;;;;;;;;;348620;28;1890;-63
2022/09/22 00:34:36;;;;;;;;;;;;;;;;;;348684;28;857;-63
2022/09/22 00:34:46;;;;;;;;;;;;;;;;;;348616;28;995;-63
2022/09/22 00:34:56;;;;;;;;;;;;;;;;;;348645;28;1015;-63
2022/09/22 00:35:07;;;;;;;;;;;;;;;;;;348169;28;2002;-63
2022/09/22 00:35:17;;;;;;;;;;;;;;;;;;349634;28;1282;-64
2022/09/22 00:35:27;;;;;;;;;;;;;;;;;;350019;28;862;-63
2022/09/22 00:35:37;;;;;;;;;;;;;;;;;;350067;28;976;-63
2022/09/22 00:35:57;;;;;;;;;;;;;;;;;;350023;28;916;-63
2022/09/22 00:36:08;;;;;;;;;;;;;;;;;;349991;28;813;-63
2022/09/22 00:36:20;;;;;;;;;;;;;;;;;;350038;28;912;-63
2022/09/22 00:36:30;;;;;;;;;;;;;;;;;;350074;28;1019;-63
2022/09/22 00:36:40;;;;;;;;;;;;;;;;;;349094;28;1430;-63
2022/09/22 00:36:51;;;;;;;;;;;;;;;;;;348720;28;1744;-63
2022/09/22 00:37:01;;;;;;;;;;;;;;;;;;348664;28;833;-63
2022/09/22 00:37:11;;;;;;;;;;;;;;;;;;348635;28;940;-63
2022/09/22 00:37:21;;;;;;;;;;;;;;;;;;348676;28;932;-63
2022/09/22 00:37:32;;;;;;;;;;;;;;;;;;348652;28;928;-63
2022/09/22 00:37:42;;;;;;;;;;;;;;;;;;348573;28;1026;-64
2022/09/22 00:37:52;;;;;;;;;;;;;;;;;;348666;28;841;-63
2022/09/22 00:38:06;;;;;;;;;;;;;;;;;;348590;28;972;-63
2022/09/22 00:38:16;;;;;;;;;;;;;;;;;;348577;28;953;-63
2022/09/22 00:38:27;;;;;;;;;;;;;;;;;;348561;28;924;-63
2022/09/22 00:38:38;;;;;;;;;;;;;;;;;;348520;28;932;-63
2022/09/22 00:38:51;;;;;;;;;;;;;;;;;;348575;28;790;-63
2022/09/22 00:39:01;;;;;;;;;;;;;;;;;;348585;28;841;-63
2022/09/22 00:39:12;;;;;;;;;;;;;;;;;;348586;28;937;-63
2022/09/22 00:39:22;;;;;;;;;;;;;;;;;;348551;28;1000;-63
2022/09/22 00:39:32;;;;;;;;;;;;;;;;;;348540;28;915;-63
2022/09/22 00:39:43;;;;;;;;;;;;;;;;;;348563;28;979;-63
2022/09/22 00:39:53;;;;;;;;;;;;;;;;;;348575;28;940;-63
2022/09/22 00:40:04;;;;;;;;;;;;;;;;;;348631;28;857;-63
2022/09/22 00:40:16;;;;;;;;;;;;;;;;;;348604;28;921;-63
2022/09/22 00:40:26;;;;;;;;;;;;;;;;;;348646;28;927;-63
2022/09/22 00:40:36;;;;;;;;;;;;;;;;;;348645;28;908;-64
2022/09/22 00:40:47;;;;;;;;;;;;;;;;;;348620;28;779;-63
2022/09/22 00:40:59;;;;;;;;;;;;;;;;;;348626;28;979;-63
2022/09/22 00:41:20;;;;;;;;;;;;;;;;;;348611;28;975;-63
2022/09/22 00:41:35;;;;;;;;;;;;;;;;;;348628;28;897;-63
2022/09/22 00:41:46;;;;;;;;;;;;;;;;;;348665;28;952;-63
2022/09/22 00:41:57;;;;;;;;;;;;;;;;;;348637;28;1170;-63
2022/09/22 00:42:08;;;;;;;;;;;;;;;;;;348590;28;975;-64
2022/09/22 00:42:19;;;;;;;;;;;;;;;;;;348643;28;892;-64
2022/09/22 00:42:29;;;;;;;;;;;;;;;;;;348674;28;932;-63
2022/09/22 00:42:39;;;;;;;;;;;;;;;;;;348682;28;782;-63
2022/09/22 00:42:49;;;;;;;;;;;;;;;;;;348666;28;980;-63
2022/09/22 00:43:13;;;;;;;;;;;;;;;;;;348617;28;920;-63
2022/09/22 00:43:25;;;;;;;;;;;;;;;;;;348636;28;991;-63
2022/09/22 00:43:36;;;;;;;;;;;;;;;;;;348687;28;837;-63
2022/09/22 00:43:48;;;;;;;;;;;;;;;;;;348667;28;912;-64
2022/09/22 00:44:16;;;;;;;;;;;;;;;;;;348667;28;913;-63
2022/09/22 00:44:37;;;;;;;;;;;;;;;;;;348606;28;972;-63
2022/09/22 00:44:48;;;;;;;;;;;;;;;;;;348648;28;924;-63
2022/09/22 00:44:58;;;;;;;;;;;;;;;;;;348671;28;1032;-63
2022/09/22 00:45:10;;;;;;;;;;;;;;;;;;348616;28;945;-63
2022/09/22 00:45:20;;;;;;;;;;;;;;;;;;348498;28;2030;-63
2022/09/22 00:45:31;;;;;;;;;;;;;;;;;;351442;28;774;-63
2022/09/22 00:45:41;;;;;;;;;;;;;;;;;;351417;28;920;-63
2022/09/22 00:45:55;;;;;;;;;;;;;;;;;;351362;28;1007;-63
2022/09/22 00:46:08;;;;;;;;;;;;;;;;;;351386;28;1076;-63
2022/09/22 00:46:24;;;;;;;;;;;;;;;;;;351340;28;998;-63
2022/09/22 00:46:35;;;;;;;;;;;;;;;;;;351396;28;1035;-63
2022/09/22 00:46:48;;;;;;;;;;;;;;;;;;351448;28;881;-63
2022/09/22 00:47:07;;;;;;;;;;;;;;;;;;351415;28;1141;-63
2022/09/22 00:47:37;;;;;;;;;;;;;;;;;;351354;28;936;-63
2022/09/22 00:47:49;;;;;;;;;;;;;;;;;;350965;28;1045;-63
2022/09/22 00:47:59;;;;;;;;;;;;;;;;;;351418;28;991;-63
2022/09/22 00:48:09;;;;;;;;;;;;;;;;;;351413;28;984;-63
2022/09/22 00:48:21;;;;;;;;;;;;;;;;;;351326;28;924;-64
2022/09/22 00:48:32;;;;;;;;;;;;;;;;;;351379;28;1063;-63
2022/09/22 00:48:46;;;;;;;;;;;;;;;;;;351467;28;901;-63
2022/09/22 00:48:58;;;;;;;;;;;;;;;;;;351379;28;991;-63
2022/09/22 00:49:09;;;;;;;;;;;;;;;;;;351439;28;943;-63
2022/09/22 00:49:23;;;;;;;;;;;;;;;;;;351341;28;948;-63
2022/09/22 00:49:40;;;;;;;;;;;;;;;;;;351403;28;994;-64
2022/09/22 00:49:50;;;;;;;;;;;;;;;;;;351401;28;972;-63
2022/09/22 00:50:10;;;;;;;;;;;;;;;;;;351485;28;1094;-63
2022/09/22 00:50:22;;;;;;;;;;;;;;;;;;351337;28;1099;-64
2022/09/22 00:50:32;;;;;;;;;;;;;;;;;;351367;28;1071;-64
2022/09/22 00:50:43;;;;;;;;;;;;;;;;;;351454;28;841;-63
2022/09/22 00:50:54;;;;;;;;;;;;;;;;;;351410;28;924;-63
2022/09/22 00:51:06;;;;;;;;;;;;;;;;;;351408;28;935;-64
2022/09/22 00:51:19;;;;;;;;;;;;;;;;;;351381;28;836;-63
2022/09/22 00:51:31;;;;;;;;;;;;;;;;;;348907;28;1410;-63
2022/09/22 00:51:43;;;;;;;;;;;;;;;;;;348612;28;857;-63
2022/09/22 00:51:53;;;;;;;;;;;;;;;;;;348640;28;983;-63
2022/09/22 00:52:04;;;;;;;;;;;;;;;;;;348652;28;861;-63
2022/09/22 00:52:16;;;;;;;;;;;;;;;;;;348628;28;1008;-63
2022/09/22 00:52:30;;;;;;;;;;;;;;;;;;348453;28;1192;-63
2022/09/22 00:52:49;;;;;;;;;;;;;;;;;;348588;28;1094;-63
2022/09/22 00:53:02;;;;;;;;;;;;;;;;;;348630;28;920;-63
2022/09/22 00:53:14;;;;;;;;;;;;;;;;;;348632;28;942;-63
2022/09/22 00:53:24;;;;;;;;;;;;;;;;;;348605;28;988;-63
2022/09/22 00:53:35;;;;;;;;;;;;;;;;;;348635;28;905;-63
2022/09/22 00:53:46;;;;;;;;;;;;;;;;;;348597;28;949;-63
2022/09/22 00:53:57;;;;;;;;;;;;;;;;;;348624;28;996;-63
2022/09/22 00:54:10;;;;;;;;;;;;;;;;;;348640;28;802;-63
2022/09/22 00:54:20;;;;;;;;;;;;;;;;;;348662;28;1055;-63
2022/09/22 00:54:31;;;;;;;;;;;;;;;;;;348544;28;2226;-63
2022/09/22 00:54:41;;;;;;;;;;;;;;;;;;348588;28;1163;-63
2022/09/22 00:54:54;;;;;;;;;;;;;;;;;;348628;28;999;-63
2022/09/22 00:55:11;;;;;;;;;;;;;;;;;;348657;28;774;-63
2022/09/22 00:55:27;;;;;;;;;;;;;;;;;;348161;28;1857;-63
2022/09/22 00:55:46;;;;;;;;;;;;;;;;;;348639;28;952;-63
2022/09/22 00:55:59;;;;;;;;;;;;;;;;;;348638;28;949;-63
2022/09/22 00:56:18;;;;;;;;;;;;;;;;;;348596;28;995;-64
2022/09/22 00:56:31;;;;;;;;;;;;;;;;;;348625;28;916;-64
2022/09/22 00:56:53;;;;;;;;;;;;;;;;;;348593;28;953;-63
2022/09/22 00:57:08;;;;;;;;;;;;;;;;;;348604;28;945;-63
2022/09/22 00:57:21;;;;;;;;;;;;;;;;;;348605;28;984;-63
2022/09/22 00:57:34;;;;;;;;;;;;;;;;;;348590;28;1003;-63
2022/09/22 00:57:45;;;;;;;;;;;;;;;;;;348635;28;1047;-63
2022/09/22 00:57:58;;;;;;;;;;;;;;;;;;348647;28;940;-63
2022/09/22 00:58:10;;;;;;;;;;;;;;;;;;348681;28;928;-63
2022/09/22 00:58:22;;;;;;;;;;;;;;;;;;348694;28;806;-63
2022/09/22 00:58:36;;;;;;;;;;;;;;;;;;348566;28;838;-63
2022/09/22 00:58:49;;;;;;;;;;;;;;;;;;348541;28;1020;-63
2022/09/22 00:59:04;;;;;;;;;;;;;;;;;;348604;28;973;-64
2022/09/22 00:59:17;;;;;;;;;;;;;;;;;;348576;28;775;-63
2022/09/22 00:59:27;;;;;;;;;;;;;;;;;;348600;28;940;-63
2022/09/22 00:59:38;;;;;;;;;;;;;;;;;;348622;28;1000;-63
2022/09/22 00:59:49;;;;;;;;;;;;;;;;;;348656;28;949;-63
2022/09/22 01:00:01;;;;;;;;;;;;;;;;;;348631;28;905;-63
2022/09/22 01:00:12;;;;;;;;;;;;;;;;;;348595;28;953;-63
2022/09/22 01:00:22;;;;;;;;;;;;;;;;;;348668;28;929;-63
2022/09/22 01:00:33;;;;;;;;;;;;;;;;;;348590;28;1181;-63
2022/09/22 01:00:43;;;;;;;;;;;;;;;;;;348587;28;889;-63
2022/09/22 01:00:54;;;;;;;;;;;;;;;;;;348553;28;921;-63
2022/09/22 01:01:06;;;;;;;;;;;;;;;;;;348636;28;783;-63
2022/09/22 01:01:18;;;;;;;;;;;;;;;;;;348717;28;940;-63
2022/09/22 01:01:28;;;;;;;;;;;;;;;;;;348659;28;980;-64
2022/09/22 01:01:39;;;;;;;;;;;;;;;;;;348628;28;854;-63
2022/09/22 01:01:49;;;;;;;;;;;;;;;;;;348615;28;928;-64
2022/09/22 01:01:59;;;;;;;;;;;;;;;;;;348714;28;780;-63
2022/09/22 01:02:10;;;;;;;;;;;;;;;;;;348576;28;1034;-63
2022/09/22 01:02:20;;;;;;;;;;;;;;;;;;348648;28;937;-64
2022/09/22 01:02:30;;;;;;;;;;;;;;;;;;348681;28;984;-63
2022/09/22 01:02:41;;;;;;;;;;;;;;;;;;348638;28;941;-63
2022/09/22 01:02:54;;;;;;;;;;;;;;;;;;348536;28;1040;-63
2022/09/22 01:03:06;;;;;;;;;;;;;;;;;;348630;28;861;-63
2022/09/22 01:03:18;;;;;;;;;;;;;;;;;;348615;28;932;-63
2022/09/22 01:03:29;;;;;;;;;;;;;;;;;;348612;28;1125;-63
2022/09/22 01:03:41;;;;;;;;;;;;;;;;;;348570;28;1033;-63
2022/09/22 01:03:53;;;;;;;;;;;;;;;;;;348574;28;1005;-63
2022/09/22 01:04:03;;;;;;;;;;;;;;;;;;348636;28;925;-63
2022/09/22 01:04:15;;;;;;;;;;;;;;;;;;348638;28;929;-63
2022/09/22 01:04:25;;;;;;;;;;;;;;;;;;348623;28;936;-63
2022/09/22 01:04:35;;;;;;;;;;;;;;;;;;348634;28;988;-63
2022/09/22 01:04:48;;;;;;;;;;;;;;;;;;348608;28;992;-63
2022/09/22 01:04:58;;;;;;;;;;;;;;;;;;348623;28;975;-63
2022/09/22 01:05:08;;;;;;;;;;;;;;;;;;348551;28;779;-63
2022/09/22 01:05:20;;;;;;;;;;;;;;;;;;348631;28;917;-63
2022/09/22 01:05:32;;;;;;;;;;;;;;;;;;348728;28;1947;-63
2022/09/22 01:05:44;;;;;;;;;;;;;;;;;;349981;28;978;-63
2022/09/22 01:05:56;;;;;;;;;;;;;;;;;;349952;28;962;-63
2022/09/22 01:06:08;;;;;;;;;;;;;;;;;;349988;28;964;-64
2022/09/22 01:06:20;;;;;;;;;;;;;;;;;;348636;28;1638;-63
2022/09/22 01:06:32;;;;;;;;;;;;;;;;;;348636;28;787;-63
2022/09/22 01:06:42;;;;;;;;;;;;;;;;;;348580;28;808;-63
2022/09/22 01:06:54;;;;;;;;;;;;;;;;;;348605;28;984;-63
2022/09/22 01:07:04;;;;;;;;;;;;;;;;;;348604;28;961;-63
2022/09/22 01:07:15;;;;;;;;;;;;;;;;;;348588;28;913;-63
2022/09/22 01:07:27;;;;;;;;;;;;;;;;;;348602;28;980;-63
2022/09/22 01:07:37;;;;;;;;;;;;;;;;;;348661;28;865;-63
2022/09/22 01:07:47;;;;;;;;;;;;;;;;;;348641;28;887;-63
2022/09/22 01:07:58;;;;;;;;;;;;;;;;;;348630;28;998;-64
2022/09/22 01:08:09;;;;;;;;;;;;;;;;;;348615;28;940;-63
2022/09/22 01:08:20;;;;;;;;;;;;;;;;;;348574;28;1000;-63
2022/09/22 01:08:32;;;;;;;;;;;;;;;;;;348610;28;976;-63
2022/09/22 01:08:43;;;;;;;;;;;;;;;;;;348601;28;960;-63
2022/09/22 01:08:54;;;;;;;;;;;;;;;;;;348650;28;866;-63
2022/09/22 01:09:05;;;;;;;;;;;;;;;;;;348589;28;945;-63
2022/09/22 01:09:16;;;;;;;;;;;;;;;;;;348585;28;798;-63
2022/09/22 01:09:27;;;;;;;;;;;;;;;;;;348604;28;1011;-63
2022/09/22 01:09:37;;;;;;;;;;;;;;;;;;348633;28;945;-63
2022/09/22 01:09:48;;;;;;;;;;;;;;;;;;348599;28;846;-63
2022/09/22 01:09:58;;;;;;;;;;;;;;;;;;348638;28;932;-63
2022/09/22 01:10:10;;;;;;;;;;;;;;;;;;348635;28;944;-63
2022/09/22 01:10:21;;;;;;;;;;;;;;;;;;348632;28;925;-63
2022/09/22 01:10:31;;;;;;;;;;;;;;;;;;348584;28;940;-63
2022/09/22 01:10:42;;;;;;;;;;;;;;;;;;348660;28;915;-63
2022/09/22 01:10:53;;;;;;;;;;;;;;;;;;348598;28;1047;-63
2022/09/22 01:11:05;;;;;;;;;;;;;;;;;;348631;28;889;-63
2022/09/22 01:11:17;;;;;;;;;;;;;;;;;;348534;28;976;-63
2022/09/22 01:11:28;;;;;;;;;;;;;;;;;;348559;28;987;-63
2022/09/22 01:11:39;;;;;;;;;;;;;;;;;;348630;28;800;-63
2022/09/22 01:11:50;;;;;;;;;;;;;;;;;;348573;28;1004;-63
2022/09/22 01:12:01;;;;;;;;;;;;;;;;;;348546;28;952;-63
2022/09/22 01:12:11;;;;;;;;;;;;;;;;;;348604;28;1003;-64
2022/09/22 01:12:23;;;;;;;;;;;;;;;;;;348658;28;924;-63
2022/09/22 01:12:34;;;;;;;;;;;;;;;;;;348567;28;1070;-63
2022/09/22 01:12:57;;;;;;;;;;;;;;;;;;348598;28;973;-63
2022/09/22 01:13:07;;;;;;;;;;;;;;;;;;348617;28;968;-63
2022/09/22 01:13:23;;;;;;;;;;;;;;;;;;348554;28;1008;-63
2022/09/22 01:13:41;;;;;;;;;;;;;;;;;;348573;28;914;-63
2022/09/22 01:14:10;;;;;;;;;;;;;;;;;;348613;28;995;-63
2022/09/22 01:14:33;;;;;;;;;;;;;;;;;;348569;28;905;-63
2022/09/22 01:15:04;;;;;;;;;;;;;;;;;;348656;28;806;-63
2022/09/22 01:15:31;;;;;;;;;;;;;;;;;;348633;28;933;-63
2022/09/22 01:16:10;;;;;;;;;;;;;;;;;;348632;28;948;-63
2022/09/22 01:16:23;;;;;;;;;;;;;;;;;;348619;28;1000;-63
2022/09/22 01:16:36;;;;;;;;;;;;;;;;;;348614;28;814;-63
2022/09/22 01:16:46;;;;;;;;;;;;;;;;;;348568;28;964;-64
2022/09/22 01:17:15;;;;;;;;;;;;;;;;;;348587;28;976;-63
2022/09/22 01:17:38;;;;;;;;;;;;;;;;;;348586;28;1157;-63
2022/09/22 01:17:48;;;;;;;;;;;;;;;;;;348642;28;869;-64
2022/09/22 01:18:18;;;;;;;;;;;;;;;;;;348558;28;933;-63
2022/09/22 01:18:52;;;;;;;;;;;;;;;;;;348505;28;1116;-64
2022/09/22 01:19:02;;;;;;;;;;;;;;;;;;349772;28;1014;-63
2022/09/22 01:19:13;;;;;;;;;;;;;;;;;;349694;28;1304;-63
2022/09/22 01:19:42;;;;;;;;;;;;;;;;;;349837;28;1098;-64
2022/09/22 01:20:02;;;;;;;;;;;;;;;;;;349823;28;940;-63
2022/09/22 01:20:15;;;;;;;;;;;;;;;;;;348576;28;993;-63
2022/09/22 01:20:46;;;;;;;;;;;;;;;;;;348592;28;992;-64
2022/09/22 01:21:12;;;;;;;;;;;;;;;;;;348247;28;1427;-63
2022/09/22 01:21:22;;;;;;;;;;;;;;;;;;349728;28;1202;-63
2022/09/22 01:21:38;;;;;;;;;;;;;;;;;;349980;28;936;-63
2022/09/22 01:21:54;;;;;;;;;;;;;;;;;;350009;28;928;-63
2022/09/22 01:22:17;;;;;;;;;;;;;;;;;;349972;28;949;-63
2022/09/22 01:22:45;;;;;;;;;;;;;;;;;;349915;28;1079;-63
2022/09/22 01:23:09;;;;;;;;;;;;;;;;;;350017;28;929;-63
2022/09/22 01:23:19;;;;;;;;;;;;;;;;;;349029;28;1364;-63
2022/09/22 01:23:46;;;;;;;;;;;;;;;;;;349317;28;1519;-63
2022/09/22 01:24:05;;;;;;;;;;;;;;;;;;348613;28;928;-63
2022/09/22 01:24:24;;;;;;;;;;;;;;;;;;348561;28;1391;-64
2022/09/22 01:24:43;;;;;;;;;;;;;;;;;;348543;28;1139;-63
2022/09/22 01:24:59;;;;;;;;;;;;;;;;;;348624;28;976;-63
2022/09/22 01:25:28;;;;;;;;;;;;;;;;;;348519;28;1079;-63
2022/09/22 01:25:56;;;;;;;;;;;;;;;;;;351094;28;1016;-63
2022/09/22 01:26:36;;;;;;;;;;;;;;;;;;351294;28;956;-63
2022/09/22 01:27:04;;;;;;;;;;;;;;;;;;351323;28;888;-63
2022/09/22 01:27:14;;;;;;;;;;;;;;;;;;351245;28;1035;-63
2022/09/22 01:27:43;;;;;;;;;;;;;;;;;;351176;28;971;-63
2022/09/22 01:28:08;;;;;;;;;;;;;;;;;;351157;28;785;-63
2022/09/22 01:28:31;;;;;;;;;;;;;;;;;;351394;28;1106;-63
2022/09/22 01:28:59;;;;;;;;;;;;;;;;;;351392;28;920;-63
2022/09/22 01:29:25;;;;;;;;;;;;;;;;;;351331;28;932;-63
2022/09/22 01:29:47;;;;;;;;;;;;;;;;;;351363;28;853;-63
2022/09/22 01:30:15;;;;;;;;;;;;;;;;;;351330;28;928;-63
2022/09/22 01:30:29;;;;;;;;;;;;;;;;;;351299;28;1085;-63
2022/09/22 01:30:39;;;;;;;;;;;;;;;;;;348706;28;1410;-63
2022/09/22 01:31:02;;;;;;;;;;;;;;;;;;349910;28;791;-63
2022/09/22 01:31:24;;;;;;;;;;;;;;;;;;349891;28;963;-63
2022/09/22 01:31:54;;;;;;;;;;;;;;;;;;349986;28;988;-63